createdAt,value
2019-03-24T00:02:21.333Z,6.47
2019-03-24T00:04:53.965Z,5.40
2019-03-24T00:07:23.971Z,5.40
2019-03-24T00:09:59.656Z,5.63
2019-03-24T00:12:32.356Z,5.97
2019-03-24T00:15:05.777Z,4.87
2019-03-24T00:17:35.431Z,4.90
2019-03-24T00:20:05.576Z,5.70
2019-03-24T00:22:35.348Z,4.57
2019-03-24T00:25:05.157Z,4.47
2019-03-24T00:27:34.850Z,6.07
2019-03-24T00:30:04.589Z,5.60
2019-03-24T00:32:34.392Z,6.07
2019-03-24T00:35:04.170Z,5.20
2019-03-24T00:37:33.854Z,5.47
2019-03-24T00:40:03.663Z,5.87
2019-03-24T00:42:33.352Z,4.77
2019-03-24T00:45:02.994Z,5.27
2019-03-24T00:47:32.630Z,5.13
2019-03-24T00:50:02.337Z,4.97
2019-03-24T00:52:32.274Z,5.77
2019-03-24T00:55:02.000Z,5.37
2019-03-24T00:57:31.628Z,4.83
2019-03-24T01:00:03.941Z,5.23
2019-03-24T01:02:33.835Z,5.67
2019-03-24T01:05:03.588Z,5.00
2019-03-24T01:07:33.339Z,4.93
2019-03-24T01:10:03.084Z,4.70
2019-03-24T01:12:32.907Z,5.00
2019-03-24T01:15:02.709Z,4.70
2019-03-24T01:17:32.464Z,4.90
2019-03-24T01:20:02.289Z,5.20
2019-03-24T01:22:32.024Z,4.70
2019-03-24T01:25:01.841Z,4.83
2019-03-24T01:27:31.666Z,5.03
2019-03-24T01:30:01.414Z,5.47
2019-03-24T01:32:31.323Z,5.27
2019-03-24T01:35:00.949Z,4.43
2019-03-24T01:37:30.812Z,4.03
2019-03-24T01:40:00.659Z,5.60
2019-03-24T01:42:30.411Z,4.73
2019-03-24T01:45:00.251Z,4.80
2019-03-24T01:47:30.180Z,4.53
2019-03-24T01:49:59.961Z,4.60
2019-03-24T01:52:29.580Z,4.80
2019-03-24T01:54:59.286Z,4.47
2019-03-24T01:57:28.989Z,4.67
2019-03-24T01:59:58.812Z,4.80
2019-03-24T02:02:28.584Z,5.77
2019-03-24T02:04:58.431Z,4.07
2019-03-24T02:07:28.259Z,3.97
2019-03-24T02:09:58.013Z,4.30
2019-03-24T02:12:27.830Z,4.50
2019-03-24T02:14:57.455Z,5.27
2019-03-24T02:17:27.099Z,4.80
2019-03-24T02:19:56.720Z,4.53
2019-03-24T02:22:26.391Z,4.33
2019-03-24T02:24:56.171Z,4.77
2019-03-24T02:27:25.996Z,4.30
2019-03-24T02:29:55.743Z,4.27
2019-03-24T02:32:25.572Z,5.07
2019-03-24T02:34:55.211Z,4.43
2019-03-24T02:37:24.860Z,4.27
2019-03-24T02:39:54.430Z,4.43
2019-03-24T02:42:24.325Z,4.07
2019-03-24T02:44:53.995Z,5.33
2019-03-24T02:47:23.733Z,4.90
2019-03-24T02:49:53.721Z,4.47
2019-03-24T02:52:23.396Z,4.20
2019-03-24T02:54:53.068Z,4.70
2019-03-24T02:57:22.944Z,4.37
2019-03-24T02:59:52.732Z,4.90
2019-03-24T03:02:22.504Z,4.33
2019-03-24T03:04:52.259Z,4.03
2019-03-24T03:07:22.055Z,4.70
2019-03-24T03:09:51.881Z,4.20
2019-03-24T03:12:21.701Z,4.33
2019-03-24T03:14:51.384Z,4.33
2019-03-24T03:17:21.324Z,4.50
2019-03-24T03:19:53.574Z,6.57
2019-03-24T03:22:22.479Z,4.73
2019-03-24T03:24:52.263Z,3.83
2019-03-24T03:27:21.891Z,4.90
2019-03-24T03:29:51.728Z,4.50
2019-03-24T03:32:21.461Z,4.87
2019-03-24T03:34:51.183Z,4.00
2019-03-24T03:37:21.047Z,4.80
2019-03-24T03:39:50.753Z,4.07
2019-03-24T03:42:20.674Z,4.03
2019-03-24T03:44:50.495Z,3.67
2019-03-24T03:47:20.257Z,4.47
2019-03-24T03:49:49.932Z,4.57
2019-03-24T03:52:19.702Z,5.33
2019-03-24T03:54:49.472Z,4.43
2019-03-24T03:57:19.236Z,4.13
2019-03-24T03:59:48.993Z,4.73
2019-03-24T04:02:18.632Z,5.17
2019-03-24T04:04:48.254Z,4.70
2019-03-24T04:07:17.823Z,4.03
2019-03-24T04:09:47.448Z,4.60
2019-03-24T04:12:17.108Z,4.20
2019-03-24T04:14:46.769Z,4.50
2019-03-24T04:17:16.598Z,4.47
2019-03-24T04:19:46.251Z,4.93
2019-03-24T04:22:15.896Z,4.10
2019-03-24T04:24:45.830Z,4.30
2019-03-24T04:27:15.582Z,5.30
2019-03-24T04:29:45.332Z,4.03
2019-03-24T04:32:15.178Z,5.40
2019-03-24T04:34:44.825Z,4.20
2019-03-24T04:37:14.488Z,4.17
2019-03-24T04:39:44.116Z,4.77
2019-03-24T04:42:13.969Z,4.83
2019-03-24T04:44:43.787Z,4.00
2019-03-24T04:47:16.774Z,5.23
2019-03-24T04:49:44.796Z,4.73
2019-03-24T04:52:14.550Z,5.10
2019-03-24T04:54:44.246Z,5.17
2019-03-24T04:57:13.912Z,5.13
2019-03-24T04:59:43.728Z,5.87
2019-03-24T05:02:13.407Z,5.63
2019-03-24T05:04:43.051Z,4.50
2019-03-24T05:07:12.969Z,4.67
2019-03-24T05:09:43.140Z,4.97
2019-03-24T05:12:12.866Z,5.80
2019-03-24T05:14:42.752Z,4.80
2019-03-24T05:17:12.508Z,4.73
2019-03-24T05:19:42.219Z,5.03
2019-03-24T05:22:11.863Z,5.17
2019-03-24T05:24:41.696Z,5.00
2019-03-24T05:27:11.371Z,4.80
2019-03-24T05:29:40.978Z,5.17
2019-03-24T05:32:10.639Z,4.23
2019-03-24T05:34:40.305Z,5.47
2019-03-24T05:37:10.207Z,4.97
2019-03-24T05:39:39.883Z,5.33
2019-03-24T05:42:09.587Z,5.60
2019-03-24T05:44:39.286Z,5.13
2019-03-24T05:47:08.862Z,5.47
2019-03-24T05:49:38.729Z,4.97
2019-03-24T05:52:08.295Z,5.30
2019-03-24T05:54:37.926Z,5.87
2019-03-24T05:57:07.555Z,5.27
2019-03-24T05:59:37.465Z,5.40
2019-03-24T06:02:07.228Z,5.27
2019-03-24T06:04:37.168Z,5.50
2019-03-24T06:07:06.847Z,4.63
2019-03-24T06:09:37.071Z,5.43
2019-03-24T06:12:07.530Z,6.67
2019-03-24T06:14:37.416Z,6.10
2019-03-24T06:17:07.204Z,5.60
2019-03-24T06:19:36.928Z,5.80
2019-03-24T06:22:06.563Z,6.33
2019-03-24T06:24:39.082Z,5.73
2019-03-24T06:27:08.791Z,5.80
2019-03-24T06:29:41.972Z,5.67
2019-03-24T06:32:11.645Z,5.90
2019-03-24T06:34:41.461Z,5.27
2019-03-24T06:37:11.176Z,6.70
2019-03-24T06:39:43.712Z,5.90
2019-03-24T06:42:13.478Z,6.13
2019-03-24T06:44:43.396Z,5.43
2019-03-24T06:47:13.061Z,6.33
2019-03-24T06:49:43.297Z,5.43
2019-03-24T06:52:13.437Z,5.93
2019-03-24T06:54:44.189Z,5.57
2019-03-24T06:57:13.930Z,6.67
2019-03-24T06:59:43.795Z,5.47
2019-03-24T07:02:13.415Z,7.23
2019-03-24T07:04:43.265Z,5.80
2019-03-24T07:07:13.225Z,6.13
2019-03-24T07:09:42.849Z,5.40
2019-03-24T07:12:12.519Z,6.13
2019-03-24T07:14:42.256Z,5.80
2019-03-24T07:17:12.041Z,5.97
2019-03-24T07:19:41.810Z,5.67
2019-03-24T07:22:11.590Z,5.77
2019-03-24T07:24:41.391Z,6.03
2019-03-24T07:27:11.150Z,5.63
2019-03-24T07:30:05.658Z,6.47
2019-03-24T07:33:13.285Z,6.77
2019-03-24T07:36:41.298Z,5.23
2019-03-24T07:40:05.947Z,4.97
2019-03-24T07:42:38.074Z,4.43
2019-03-24T07:45:12.294Z,5.90
2019-03-24T07:47:42.273Z,5.13
2019-03-24T07:50:12.243Z,4.60
2019-03-24T07:52:51.855Z,5.03
2019-03-24T07:55:24.175Z,4.67
2019-03-24T07:57:54.332Z,5.80
2019-03-24T08:00:35.689Z,3.67
2019-03-24T08:03:05.585Z,4.30
2019-03-24T08:05:35.502Z,4.63
2019-03-24T08:08:05.728Z,4.03
2019-03-24T08:10:35.791Z,4.53
2019-03-24T08:13:06.031Z,4.57
2019-03-24T08:15:40.285Z,4.53
2019-03-24T08:18:29.982Z,3.60
2019-03-24T08:21:00.851Z,3.93
2019-03-24T08:23:50.069Z,3.33
2019-03-24T08:26:52.166Z,6.57
2019-03-24T08:29:22.905Z,4.47
2019-03-24T08:31:57.102Z,4.20
2019-03-24T08:34:29.803Z,4.40
2019-03-24T08:37:17.649Z,4.70
2019-03-24T08:40:02.966Z,4.07
2019-03-24T08:42:52.399Z,5.00
2019-03-24T08:45:38.129Z,4.37
2019-03-24T08:48:07.960Z,3.80
2019-03-24T08:51:10.518Z,3.83
2019-03-24T08:54:02.974Z,3.63
2019-03-24T08:57:04.249Z,3.83
2019-03-24T08:59:34.245Z,3.37
2019-03-24T09:02:04.119Z,4.17
2019-03-24T09:04:33.884Z,3.97
2019-03-24T09:07:03.579Z,4.83
2019-03-24T09:09:33.101Z,4.67
2019-03-24T09:12:03.225Z,4.50
2019-03-24T09:14:33.069Z,4.07
2019-03-24T09:17:17.018Z,3.90
2019-03-24T09:19:51.105Z,3.70
2019-03-24T09:22:20.961Z,3.13
2019-03-24T09:24:50.710Z,3.43
2019-03-24T09:27:20.365Z,3.50
2019-03-24T09:29:50.206Z,3.47
2019-03-24T09:32:19.953Z,3.33
2019-03-24T09:34:49.648Z,3.50
2019-03-24T09:37:25.759Z,4.23
2019-03-24T09:39:55.440Z,3.60
2019-03-24T09:42:25.552Z,3.63
2019-03-24T09:44:55.587Z,4.27
2019-03-24T09:47:25.635Z,3.40
2019-03-24T09:49:55.211Z,3.87
2019-03-24T09:52:26.143Z,3.90
2019-03-24T09:54:56.283Z,4.10
2019-03-24T09:57:26.288Z,4.03
2019-03-24T09:59:56.095Z,3.70
2019-03-24T10:02:27.052Z,4.23
2019-03-24T10:04:56.737Z,3.63
2019-03-24T10:07:26.728Z,4.33
2019-03-24T10:09:56.674Z,3.83
2019-03-24T10:12:26.579Z,4.00
2019-03-24T10:14:56.175Z,3.83
2019-03-24T10:17:25.936Z,2.97
2019-03-24T10:19:55.684Z,3.10
2019-03-24T10:22:25.529Z,4.00
2019-03-24T10:24:58.258Z,3.60
2019-03-24T10:27:28.089Z,3.33
2019-03-24T10:29:57.765Z,4.03
2019-03-24T10:32:27.527Z,3.40
2019-03-24T10:34:57.869Z,2.47
2019-03-24T10:37:27.543Z,3.10
2019-03-24T10:39:57.607Z,3.43
2019-03-24T10:42:27.287Z,4.10
2019-03-24T10:44:56.887Z,3.00
2019-03-24T10:47:27.647Z,4.13
2019-03-24T10:49:57.459Z,2.93
2019-03-24T10:52:27.763Z,3.40
2019-03-24T10:54:57.438Z,2.80
2019-03-24T10:57:27.248Z,3.47
2019-03-24T10:59:56.917Z,2.70
2019-03-24T11:02:26.879Z,2.87
2019-03-24T11:04:56.455Z,3.13
2019-03-24T11:07:26.042Z,2.80
2019-03-24T11:09:55.782Z,2.83
2019-03-24T11:12:25.482Z,2.93
2019-03-24T11:14:55.421Z,3.03
2019-03-24T11:17:25.206Z,2.83
2019-03-24T11:19:54.814Z,3.07
2019-03-24T11:22:24.566Z,3.03
2019-03-24T11:24:54.234Z,2.57
2019-03-24T11:27:23.963Z,2.30
2019-03-24T11:29:53.632Z,3.37
2019-03-24T11:32:23.200Z,2.23
2019-03-24T11:34:53.156Z,2.70
2019-03-24T11:37:22.807Z,2.70
2019-03-24T11:40:11.476Z,2.50
2019-03-24T11:42:41.182Z,3.65
2019-03-24T11:45:13.013Z,3.30
2019-03-24T11:47:42.840Z,3.23
2019-03-24T11:50:12.819Z,3.23
2019-03-24T11:52:42.438Z,2.43
2019-03-24T11:55:12.154Z,2.37
2019-03-24T11:57:44.037Z,2.37
2019-03-24T12:00:13.903Z,3.37
2019-03-24T12:02:43.562Z,2.83
2019-03-24T12:05:13.628Z,3.00
2019-03-24T12:07:43.472Z,2.33
2019-03-24T12:10:13.416Z,3.10
2019-03-24T12:12:43.304Z,2.95
2019-03-24T12:15:13.427Z,3.00
2019-03-24T12:17:43.174Z,3.20
2019-03-24T12:20:15.590Z,2.20
2019-03-24T12:22:45.243Z,2.03
2019-03-24T12:25:15.719Z,2.40
2019-03-24T12:27:46.454Z,1.83
2019-03-24T12:30:21.822Z,1.80
2019-03-24T12:32:51.648Z,2.43
2019-03-24T12:35:21.334Z,2.50
2019-03-24T12:37:51.152Z,2.03
2019-03-24T12:40:20.787Z,2.50
2019-03-24T12:42:50.422Z,1.80
2019-03-24T12:45:20.112Z,2.00
2019-03-24T12:47:50.006Z,1.97
2019-03-24T12:50:30.612Z,2.37
2019-03-24T12:53:00.267Z,2.10
2019-03-24T12:55:30.026Z,2.30
2019-03-24T12:57:59.687Z,2.30
2019-03-24T13:00:37.804Z,2.10
2019-03-24T13:03:07.988Z,2.43
2019-03-24T13:05:37.906Z,2.17
2019-03-24T13:08:17.899Z,2.13
2019-03-24T13:10:48.872Z,1.90
2019-03-24T13:13:18.710Z,2.13
2019-03-24T13:15:48.382Z,1.98
2019-03-24T13:18:18.082Z,2.60
2019-03-24T13:20:47.885Z,2.50
2019-03-24T13:23:17.636Z,2.22
2019-03-24T13:25:47.390Z,2.27
2019-03-24T13:28:17.289Z,3.45
2019-03-24T13:30:47.467Z,2.50
2019-03-24T13:33:17.458Z,2.08
2019-03-24T13:35:49.475Z,2.10
2019-03-24T13:38:19.635Z,2.73
2019-03-24T13:40:49.359Z,1.77
2019-03-24T13:43:19.548Z,2.40
2019-03-24T13:45:49.571Z,1.87
2019-03-24T13:48:19.496Z,2.30
2019-03-24T13:50:49.222Z,2.87
2019-03-24T13:53:18.946Z,2.80
2019-03-24T13:55:48.807Z,1.65
2019-03-24T13:58:18.451Z,2.10
2019-03-24T14:00:48.450Z,2.03
2019-03-24T14:03:18.253Z,2.42
2019-03-24T14:05:47.994Z,3.10
2019-03-24T14:08:17.762Z,1.67
2019-03-24T14:10:47.370Z,2.73
2019-03-24T14:13:17.163Z,2.50
2019-03-24T14:15:46.995Z,2.15
2019-03-24T14:18:16.844Z,2.20
2019-03-24T14:20:46.542Z,2.17
2019-03-24T14:23:16.386Z,2.42
2019-03-24T14:25:46.076Z,2.40
2019-03-24T14:28:15.739Z,2.75
2019-03-24T14:30:47.272Z,2.30
2019-03-24T14:33:17.218Z,2.80
2019-03-24T14:35:46.980Z,2.60
2019-03-24T14:38:16.658Z,2.07
2019-03-24T14:40:46.430Z,2.27
2019-03-24T14:43:16.184Z,3.17
2019-03-24T14:45:45.856Z,2.47
2019-03-24T14:48:15.912Z,3.17
2019-03-24T14:50:53.820Z,2.67
2019-03-24T14:53:17.166Z,1.80
2019-03-24T14:55:46.980Z,2.50
2019-03-24T14:58:16.763Z,2.30
2019-03-24T15:00:46.485Z,1.95
2019-03-24T15:03:16.580Z,2.45
2019-03-24T15:05:46.337Z,2.50
2019-03-24T15:08:16.156Z,2.45
2019-03-24T15:10:45.839Z,2.83
2019-03-24T15:13:15.768Z,1.80
2019-03-24T15:15:45.616Z,1.83
2019-03-24T15:18:15.287Z,2.30
2019-03-24T15:20:45.103Z,2.55
2019-03-24T15:23:14.841Z,2.20
2019-03-24T15:25:44.548Z,2.27
2019-03-24T15:28:14.341Z,1.90
2019-03-24T15:30:44.021Z,2.40
2019-03-24T15:33:13.811Z,2.58
2019-03-24T15:35:43.678Z,1.92
2019-03-24T15:38:13.379Z,2.10
2019-03-24T15:40:43.124Z,1.75
2019-03-24T15:43:12.952Z,1.93
2019-03-24T15:45:42.708Z,1.60
2019-03-24T15:48:12.464Z,2.00
2019-03-24T15:50:42.290Z,1.90
2019-03-24T15:53:11.985Z,2.05
2019-03-24T15:55:44.204Z,2.67
2019-03-24T15:58:14.051Z,2.33
2019-03-24T16:00:48.917Z,2.83
2019-03-24T16:03:19.228Z,2.27
2019-03-24T16:05:49.312Z,2.00
2019-03-24T16:08:19.048Z,2.10
2019-03-24T16:10:48.850Z,1.90
2019-03-24T16:13:18.581Z,2.27
2019-03-24T16:15:48.299Z,1.90
2019-03-24T16:18:18.001Z,2.17
2019-03-24T16:20:47.924Z,2.03
2019-03-24T16:23:17.662Z,2.43
2019-03-24T16:25:47.530Z,2.07
2019-03-24T16:28:17.311Z,3.07
2019-03-24T16:30:47.206Z,3.87
2019-03-24T16:33:17.018Z,2.63
2019-03-24T16:35:46.925Z,2.93
2019-03-24T16:38:16.585Z,1.60
2019-03-24T16:40:46.738Z,2.00
2019-03-24T16:43:16.414Z,1.93
2019-03-24T16:46:05.222Z,1.87
2019-03-24T16:48:37.017Z,2.20
2019-03-24T16:51:06.489Z,2.00
2019-03-24T16:53:36.347Z,2.17
2019-03-24T16:56:06.509Z,2.47
2019-03-24T16:58:36.203Z,2.43
2019-03-24T17:01:06.075Z,2.50
2019-03-24T17:03:35.916Z,1.97
2019-03-24T17:06:05.868Z,2.30
2019-03-24T17:08:35.606Z,2.50
2019-03-24T17:11:05.447Z,2.10
2019-03-24T17:13:35.080Z,2.00
2019-03-24T17:16:05.040Z,2.40
2019-03-24T17:18:34.825Z,3.00
2019-03-24T17:21:04.555Z,2.20
2019-03-24T17:23:34.203Z,2.43
2019-03-24T17:26:04.020Z,2.03
2019-03-24T17:28:34.037Z,2.13
2019-03-24T17:31:22.565Z,2.00
2019-03-24T17:33:52.365Z,2.40
2019-03-24T17:36:22.072Z,1.87
2019-03-24T17:38:51.960Z,3.50
2019-03-24T17:41:21.677Z,1.93
2019-03-24T17:43:51.411Z,2.30
2019-03-24T17:46:21.088Z,2.80
2019-03-24T17:48:50.896Z,2.50
2019-03-24T17:51:20.713Z,3.80
2019-03-24T17:53:50.607Z,4.80
2019-03-24T17:56:20.466Z,2.00
2019-03-24T17:58:50.256Z,2.80
2019-03-24T18:01:20.144Z,1.90
2019-03-24T18:03:50.000Z,2.30
2019-03-24T18:06:19.902Z,1.70
2019-03-24T18:08:49.699Z,2.17
2019-03-24T18:11:19.453Z,2.17
2019-03-24T18:13:49.180Z,2.13
2019-03-24T18:16:19.272Z,2.47
2019-03-24T18:18:49.063Z,2.37
2019-03-24T18:21:18.619Z,2.40
2019-03-24T18:23:48.544Z,1.90
2019-03-24T18:26:18.444Z,1.77
2019-03-24T18:28:48.095Z,2.10
2019-03-24T18:31:17.659Z,2.40
2019-03-24T18:33:47.900Z,2.57
2019-03-24T18:36:17.787Z,1.90
2019-03-24T18:38:47.556Z,2.20
2019-03-24T18:41:17.897Z,2.73
2019-03-24T18:43:47.554Z,2.07
2019-03-24T18:46:17.302Z,2.40
2019-03-24T18:48:47.256Z,2.33
2019-03-24T18:51:17.010Z,2.47
2019-03-24T18:53:46.702Z,2.07
2019-03-24T18:56:16.343Z,2.33
2019-03-24T18:58:46.185Z,2.70
2019-03-24T19:01:15.834Z,3.20
2019-03-24T19:03:45.503Z,3.23
2019-03-24T19:06:16.957Z,3.60
2019-03-24T19:08:46.647Z,3.60
2019-03-24T19:11:16.326Z,3.37
2019-03-24T19:13:46.128Z,3.27
2019-03-24T19:16:16.015Z,3.00
2019-03-24T19:18:45.740Z,2.70
2019-03-24T19:21:15.596Z,2.90
2019-03-24T19:23:45.345Z,2.60
2019-03-24T19:26:15.156Z,3.10
2019-03-24T19:28:45.011Z,2.83
2019-03-24T19:31:14.973Z,3.07
2019-03-24T19:33:44.668Z,3.03
2019-03-24T19:36:14.582Z,3.30
2019-03-24T19:38:44.341Z,2.73
2019-03-24T19:41:14.039Z,2.67
2019-03-24T19:43:43.999Z,2.37
2019-03-24T19:46:14.085Z,2.27
2019-03-24T19:48:43.971Z,3.10
2019-03-24T19:51:13.779Z,2.43
2019-03-24T19:53:43.438Z,7.57
2019-03-24T19:56:13.283Z,7.70
2019-03-24T19:58:42.888Z,9.90
2019-03-24T20:01:12.766Z,7.23
2019-03-24T20:03:43.581Z,5.40
2019-03-24T20:06:13.456Z,4.27
2019-03-24T20:08:43.307Z,3.90
2019-03-24T20:11:13.206Z,2.90
2019-03-24T20:13:43.036Z,3.57
2019-03-24T20:16:12.831Z,3.37
2019-03-24T20:18:42.684Z,3.77
2019-03-24T20:21:12.509Z,3.57
2019-03-24T20:23:42.127Z,3.73
2019-03-24T20:26:11.912Z,3.67
2019-03-24T20:28:41.768Z,4.00
2019-03-24T20:31:11.602Z,4.77
2019-03-24T20:33:41.432Z,4.90
2019-03-24T20:36:11.184Z,4.60
2019-03-24T20:38:40.878Z,4.70
2019-03-24T20:41:10.615Z,4.70
2019-03-24T20:43:40.415Z,4.30
2019-03-24T20:46:10.256Z,3.10
2019-03-24T20:48:40.027Z,2.40
2019-03-24T20:51:09.696Z,2.83
2019-03-24T20:53:39.594Z,2.43
2019-03-24T20:56:09.224Z,3.57
2019-03-24T20:58:38.987Z,2.37
2019-03-24T21:01:08.996Z,2.43
2019-03-24T21:03:40.998Z,2.53
2019-03-24T21:06:10.759Z,2.83
2019-03-24T21:08:40.565Z,2.50
2019-03-24T21:11:10.555Z,2.43
2019-03-24T21:13:40.338Z,3.67
2019-03-24T21:16:10.239Z,2.60
2019-03-24T21:18:40.378Z,2.93
2019-03-24T21:21:10.087Z,2.50
2019-03-24T21:23:40.182Z,2.40
2019-03-24T21:26:11.232Z,2.00
2019-03-24T21:28:41.139Z,2.13
2019-03-24T21:31:10.815Z,2.73
2019-03-24T21:33:40.825Z,2.43
2019-03-24T21:36:10.575Z,2.40
2019-03-24T21:38:40.419Z,3.00
2019-03-24T21:41:10.084Z,2.33
2019-03-24T21:43:39.974Z,2.43
2019-03-24T21:46:09.761Z,2.73
2019-03-24T21:48:39.517Z,2.33
2019-03-24T21:51:09.350Z,2.07
2019-03-24T21:53:40.919Z,2.67
2019-03-24T21:56:10.528Z,4.10
2019-03-24T21:58:40.316Z,2.93
2019-03-24T22:01:10.107Z,2.50
2019-03-24T22:03:40.002Z,2.53
2019-03-24T22:06:09.749Z,2.10
2019-03-24T22:08:39.599Z,2.53
2019-03-24T22:11:09.233Z,2.90
2019-03-24T22:13:38.943Z,2.83
2019-03-24T22:16:08.676Z,2.67
2019-03-24T22:18:38.370Z,2.93
2019-03-24T22:21:08.114Z,2.97
2019-03-24T22:23:37.862Z,3.10
2019-03-24T22:26:07.693Z,3.97
2019-03-24T22:28:37.380Z,2.77
2019-03-24T22:31:09.577Z,2.90
2019-03-24T22:33:39.291Z,2.90
2019-03-24T22:36:12.216Z,3.17
2019-03-24T22:38:47.504Z,3.63
2019-03-24T22:41:17.371Z,3.70
2019-03-24T22:43:48.019Z,3.73
2019-03-24T22:46:18.728Z,4.00
2019-03-24T22:48:52.449Z,4.60
2019-03-24T22:51:23.604Z,4.60
2019-03-24T22:54:02.979Z,3.73
2019-03-24T22:56:24.712Z,4.67
2019-03-24T22:58:54.341Z,4.60
2019-03-24T23:01:24.017Z,4.17
2019-03-24T23:03:53.807Z,4.47
2019-03-24T23:06:23.448Z,4.13
2019-03-24T23:08:53.123Z,3.93
2019-03-24T23:11:22.958Z,3.77
2019-03-24T23:13:52.615Z,4.23
2019-03-24T23:16:22.317Z,5.10
2019-03-24T23:19:03.172Z,3.60
2019-03-24T23:21:32.817Z,3.93
2019-03-24T23:24:02.551Z,3.00
2019-03-24T23:26:32.246Z,2.90
2019-03-24T23:29:01.878Z,2.73
2019-03-24T23:31:34.004Z,3.10
2019-03-24T23:34:03.339Z,3.10
2019-03-24T23:36:32.980Z,4.03
2019-03-24T23:39:02.727Z,2.47
2019-03-24T23:41:32.446Z,2.83
2019-03-24T23:44:04.021Z,2.83
2019-03-24T23:46:33.491Z,2.80
2019-03-24T23:49:03.433Z,3.27
2019-03-24T23:51:33.147Z,2.33
2019-03-24T23:54:02.843Z,2.57
2019-03-24T23:56:32.473Z,2.23
2019-03-24T23:59:02.113Z,2.30
